createdAt,value
2022-08-17T00:00:34.323Z,1.00
2022-08-17T00:03:10.559Z,1.00
2022-08-17T00:05:43.735Z,5.60
2022-08-17T00:08:12.526Z,22.00
2022-08-17T00:10:40.975Z,12.30
2022-08-17T00:13:16.735Z,4.70
2022-08-17T00:15:48.274Z,1.00
2022-08-17T00:19:01.382Z,1.00
2022-08-17T00:21:10.351Z,1.00
2022-08-17T00:23:44.500Z,1.00
2022-08-17T00:26:43.701Z,1.00
2022-08-17T00:29:06.610Z,1.00
2022-08-17T00:31:35.568Z,1.00
2022-08-17T00:34:05.031Z,1.00
2022-08-17T00:36:34.605Z,1.00
2022-08-17T00:39:02.951Z,1.00
2022-08-17T00:41:31.061Z,1.00
2022-08-17T00:44:02.874Z,1.00
2022-08-17T00:46:33.439Z,1.00
2022-08-17T00:49:01.580Z,1.00
2022-08-17T00:51:33.145Z,1.00
2022-08-17T00:54:13.120Z,1.00
2022-08-17T00:56:45.468Z,1.00
2022-08-17T00:59:18.760Z,1.00
2022-08-17T01:01:48.952Z,1.00
2022-08-17T01:04:19.016Z,1.00
2022-08-17T01:06:49.345Z,99.90
2022-08-17T01:09:19.897Z,1.00
2022-08-17T01:11:52.272Z,1.00
2022-08-17T01:14:21.626Z,1.00
2022-08-17T01:16:51.251Z,1.00
2022-08-17T01:19:22.749Z,1.00
2022-08-17T01:21:55.254Z,1.00
2022-08-17T01:24:24.941Z,1.00
2022-08-17T01:26:53.063Z,1.00
2022-08-17T01:29:25.579Z,1.00
2022-08-17T01:31:58.371Z,1.00
2022-08-17T01:34:36.860Z,1.00
2022-08-17T01:37:12.129Z,1.00
2022-08-17T01:39:46.343Z,1.00
2022-08-17T01:42:22.008Z,1.00
2022-08-17T01:44:54.040Z,1.00
2022-08-17T01:47:22.209Z,1.00
2022-08-17T01:49:50.728Z,1.00
2022-08-17T01:52:19.372Z,1.00
2022-08-17T01:54:51.297Z,1.00
2022-08-17T01:57:19.653Z,1.00
2022-08-17T01:59:47.759Z,1.00
2022-08-17T02:02:31.029Z,1.00
2022-08-17T02:05:00.236Z,6.00
2022-08-17T02:07:28.361Z,1.00
2022-08-17T02:09:57.959Z,7.70
2022-08-17T02:12:38.359Z,6.20
2022-08-17T02:15:09.631Z,7.50
2022-08-17T02:17:37.702Z,18.70
2022-08-17T02:20:07.415Z,20.70
2022-08-17T02:22:36.547Z,24.90
2022-08-17T02:25:09.589Z,43.40
2022-08-17T02:27:40.668Z,61.30
2022-08-17T02:30:59.741Z,64.80
2022-08-17T02:33:04.319Z,63.00
2022-08-17T02:35:34.628Z,68.80
2022-08-17T02:38:02.841Z,85.30
2022-08-17T02:40:35.987Z,86.50
2022-08-17T02:43:05.237Z,89.80
2022-08-17T02:45:33.429Z,84.20
2022-08-17T02:48:01.583Z,83.20
2022-08-17T02:50:29.855Z,86.60
2022-08-17T02:53:01.635Z,97.10
2022-08-17T02:55:32.887Z,99.90
2022-08-17T02:58:01.677Z,99.90
2022-08-17T03:00:33.985Z,99.90
2022-08-17T03:03:02.932Z,99.90
2022-08-17T03:05:33.467Z,99.90
2022-08-17T03:08:01.818Z,99.90
2022-08-17T03:10:30.225Z,99.90
2022-08-17T03:12:59.708Z,99.90
2022-08-17T03:15:30.450Z,99.90
2022-08-17T03:18:01.700Z,99.90
2022-08-17T03:20:32.470Z,99.90
2022-08-17T03:23:01.971Z,99.90
2022-08-17T03:25:34.485Z,99.90
2022-08-17T03:28:04.731Z,99.90
2022-08-17T03:30:33.617Z,99.90
2022-08-17T03:33:04.158Z,99.90
2022-08-17T03:35:36.526Z,99.90
2022-08-17T03:38:05.519Z,99.90
2022-08-17T03:40:55.332Z,99.90
2022-08-17T03:43:23.867Z,99.90
2022-08-17T03:46:24.900Z,99.90
2022-08-17T03:49:15.002Z,99.90
2022-08-17T03:52:00.668Z,99.90
2022-08-17T03:54:46.088Z,99.90
2022-08-17T03:57:14.279Z,99.90
2022-08-17T03:59:45.173Z,99.90
2022-08-17T04:02:18.367Z,99.90
2022-08-17T04:04:46.916Z,99.90
2022-08-17T04:07:15.006Z,99.90
2022-08-17T04:09:43.537Z,99.90
2022-08-17T04:12:11.716Z,99.90
2022-08-17T04:14:53.588Z,99.90
2022-08-17T04:17:26.873Z,99.90
2022-08-17T04:19:56.279Z,99.90
2022-08-17T04:22:32.283Z,84.10
2022-08-17T04:25:08.415Z,1.00
2022-08-17T04:27:36.838Z,1.00
2022-08-17T04:30:07.914Z,1.00
2022-08-17T04:33:03.436Z,1.00
2022-08-17T04:35:39.412Z,1.00
2022-08-17T04:38:13.915Z,1.00
2022-08-17T04:41:02.178Z,1.00
2022-08-17T04:43:32.038Z,1.00
2022-08-17T04:46:01.890Z,1.00
2022-08-17T04:48:35.980Z,99.90
2022-08-17T04:51:08.222Z,1.00
2022-08-17T04:53:36.553Z,1.00
2022-08-17T04:56:05.108Z,99.90
2022-08-17T04:58:36.258Z,99.90
2022-08-17T05:01:05.909Z,1.00
2022-08-17T05:03:36.156Z,1.00
2022-08-17T05:06:04.921Z,1.00
2022-08-17T05:08:33.021Z,99.90
2022-08-17T05:11:01.261Z,99.90
2022-08-17T05:13:30.653Z,99.90
2022-08-17T05:16:01.312Z,99.90
2022-08-17T05:18:30.686Z,99.90
2022-08-17T05:21:00.973Z,52.30
2022-08-17T05:23:38.491Z,6.60
2022-08-17T05:26:25.925Z,6.50
2022-08-17T05:29:00.586Z,1.00
2022-08-17T05:31:31.640Z,1.00
2022-08-17T05:34:01.054Z,1.00
2022-08-17T05:36:41.658Z,1.00
2022-08-17T05:39:16.265Z,1.00
2022-08-17T05:41:46.763Z,1.00
2022-08-17T05:44:15.142Z,1.00
2022-08-17T05:46:48.452Z,1.00
2022-08-17T05:49:19.992Z,1.00
2022-08-17T05:52:13.104Z,1.00
2022-08-17T05:54:55.779Z,1.00
2022-08-17T05:57:42.127Z,1.00
2022-08-17T06:00:20.332Z,1.00
2022-08-17T06:03:01.603Z,1.00
2022-08-17T06:05:42.373Z,1.00
2022-08-17T06:08:20.305Z,1.00
2022-08-17T06:10:58.334Z,1.00
2022-08-17T06:13:39.911Z,1.00
2022-08-17T06:16:33.655Z,1.00
2022-08-17T06:19:03.176Z,1.00
2022-08-17T06:21:35.287Z,1.00
2022-08-17T06:24:16.641Z,1.00
2022-08-17T06:26:45.577Z,99.90
2022-08-17T06:29:23.714Z,99.90
2022-08-17T06:31:52.097Z,99.90
2022-08-17T06:34:21.726Z,99.90
2022-08-17T06:36:57.939Z,99.90
2022-08-17T06:39:40.835Z,99.90
2022-08-17T06:42:54.686Z,99.90
2022-08-17T06:45:14.753Z,1.00
2022-08-17T06:47:51.045Z,1.00
2022-08-17T06:50:23.287Z,99.90
2022-08-17T06:52:58.591Z,1.00
2022-08-17T06:55:38.138Z,99.90
2022-08-17T06:58:15.813Z,99.90
2022-08-17T07:00:47.696Z,99.90
2022-08-17T07:03:27.705Z,99.90
2022-08-17T07:06:00.085Z,99.90
2022-08-17T07:08:35.435Z,99.90
2022-08-17T07:11:09.798Z,99.90
2022-08-17T07:13:51.526Z,99.90
2022-08-17T07:16:25.957Z,99.90
2022-08-17T07:18:57.229Z,99.90
2022-08-17T07:21:39.435Z,99.90
2022-08-17T07:24:29.448Z,99.90
2022-08-17T07:27:09.920Z,99.90
2022-08-17T07:29:41.822Z,99.90
2022-08-17T07:32:12.471Z,99.90
2022-08-17T07:35:18.303Z,99.90
2022-08-17T07:37:54.162Z,99.90
2022-08-17T07:40:27.617Z,99.90
2022-08-17T07:43:22.304Z,99.90
2022-08-17T07:46:32.747Z,99.90
2022-08-17T07:49:23.290Z,99.90
2022-08-17T07:52:48.025Z,99.90
2022-08-17T07:54:49.328Z,99.90
2022-08-17T07:57:31.118Z,99.90
2022-08-17T08:00:16.946Z,99.90
2022-08-17T08:02:48.418Z,99.90
2022-08-17T08:05:30.688Z,99.90
2022-08-17T08:08:25.432Z,99.90
2022-08-17T08:11:05.529Z,99.90
2022-08-17T08:13:34.550Z,99.90
2022-08-17T08:16:22.694Z,99.90
2022-08-17T08:18:56.761Z,99.90
2022-08-17T08:21:46.451Z,99.90
2022-08-17T08:24:40.108Z,99.90
2022-08-17T08:27:19.832Z,99.90
2022-08-17T08:29:55.149Z,99.90
2022-08-17T08:32:40.486Z,99.90
2022-08-17T08:35:12.110Z,99.90
2022-08-17T08:37:49.360Z,99.90
2022-08-17T08:40:36.425Z,99.90
2022-08-17T08:43:11.747Z,99.90
2022-08-17T08:45:47.477Z,99.90
2022-08-17T08:48:53.855Z,99.90
2022-08-17T08:51:31.981Z,99.90
2022-08-17T08:54:07.986Z,99.90
2022-08-17T08:56:58.969Z,99.90
2022-08-17T08:59:35.978Z,99.90
2022-08-17T09:02:34.680Z,99.90
2022-08-17T09:05:15.711Z,99.90
2022-08-17T09:07:56.318Z,99.90
2022-08-17T09:10:29.421Z,99.90
2022-08-17T09:13:10.081Z,99.90
2022-08-17T09:15:43.512Z,99.90
2022-08-17T09:19:02.303Z,99.90
2022-08-17T09:21:12.391Z,99.90
2022-08-17T09:23:46.728Z,99.90
2022-08-17T09:26:21.079Z,99.90
2022-08-17T09:28:51.712Z,99.90
2022-08-17T09:31:31.297Z,99.90
2022-08-17T09:34:05.796Z,99.90
2022-08-17T09:36:42.342Z,99.90
2022-08-17T09:39:16.045Z,99.90
2022-08-17T09:41:49.814Z,99.90
2022-08-17T09:44:28.015Z,99.90
2022-08-17T09:47:03.413Z,99.90
2022-08-17T09:49:40.069Z,99.90
2022-08-17T09:52:18.179Z,99.90
2022-08-17T09:54:47.041Z,99.90
2022-08-17T09:57:32.492Z,99.90
2022-08-17T10:00:17.035Z,99.90
2022-08-17T10:03:19.029Z,99.90
2022-08-17T10:05:56.271Z,99.90
2022-08-17T10:08:35.316Z,99.90
2022-08-17T10:11:19.241Z,99.90
2022-08-17T10:13:56.341Z,99.90
2022-08-17T10:16:37.390Z,99.90
2022-08-17T10:19:14.838Z,99.90
2022-08-17T10:22:32.528Z,99.90
2022-08-17T10:25:22.261Z,99.90
2022-08-17T10:27:56.238Z,99.90
2022-08-17T10:30:26.612Z,99.90
2022-08-17T10:32:59.180Z,99.90
2022-08-17T10:35:34.198Z,99.90
2022-08-17T10:38:28.593Z,99.90
2022-08-17T10:41:04.791Z,99.90
2022-08-17T10:44:35.383Z,99.90
2022-08-17T10:46:52.430Z,99.90
2022-08-17T10:49:29.424Z,99.90
2022-08-17T10:51:59.911Z,99.90
2022-08-17T10:54:40.875Z,99.90
2022-08-17T10:57:42.601Z,99.90
2022-08-17T11:00:15.981Z,99.90
2022-08-17T11:02:49.602Z,99.90
2022-08-17T11:05:46.985Z,99.90
2022-08-17T11:08:42.363Z,99.90
2022-08-17T11:11:37.681Z,99.90
2022-08-17T11:14:23.955Z,99.90
2022-08-17T11:17:11.296Z,99.90
2022-08-17T11:20:09.636Z,99.90
2022-08-17T11:23:13.226Z,99.90
2022-08-17T11:25:45.067Z,99.90
2022-08-17T11:28:19.407Z,99.90
2022-08-17T11:30:52.214Z,99.90
2022-08-17T11:33:59.304Z,99.90
2022-08-17T11:37:04.084Z,99.90
2022-08-17T11:40:06.465Z,99.90
2022-08-17T11:42:56.453Z,99.90
2022-08-17T11:45:56.044Z,99.90
2022-08-17T11:48:50.755Z,99.90
2022-08-17T11:51:35.161Z,99.90
2022-08-17T11:54:31.552Z,99.90
2022-08-17T11:56:59.028Z,99.90
2022-08-17T11:59:57.682Z,99.90
2022-08-17T12:02:39.067Z,99.90
2022-08-17T12:05:40.587Z,99.90
2022-08-17T12:08:20.043Z,99.90
2022-08-17T12:10:59.900Z,99.90
2022-08-17T12:13:30.491Z,99.90
2022-08-17T12:16:07.204Z,99.90
2022-08-17T12:18:39.497Z,99.90
2022-08-17T12:21:32.694Z,99.90
2022-08-17T12:24:10.230Z,99.90
2022-08-17T12:26:38.785Z,99.90
2022-08-17T12:29:18.211Z,99.90
2022-08-17T12:32:02.104Z,99.90
2022-08-17T12:34:37.872Z,99.90
2022-08-17T12:37:09.121Z,99.90
2022-08-17T12:39:52.278Z,99.90
2022-08-17T12:42:26.153Z,99.90
2022-08-17T12:44:54.220Z,99.90
2022-08-17T12:47:23.290Z,99.90
2022-08-17T12:49:55.152Z,99.90
2022-08-17T12:52:26.654Z,99.90
2022-08-17T12:54:58.003Z,99.90
2022-08-17T12:57:32.703Z,99.90
2022-08-17T13:00:03.569Z,99.90
2022-08-17T13:02:45.125Z,99.90
2022-08-17T13:05:23.051Z,99.90
2022-08-17T13:07:54.560Z,99.90
2022-08-17T13:10:32.429Z,99.90
2022-08-17T13:13:04.919Z,99.90
2022-08-17T13:15:52.450Z,99.90
2022-08-17T13:18:40.442Z,99.90
2022-08-17T13:21:26.826Z,99.90
2022-08-17T13:24:01.374Z,99.90
2022-08-17T13:26:33.879Z,99.90
2022-08-17T13:29:03.529Z,99.90
2022-08-17T13:31:49.222Z,99.90
2022-08-17T13:35:06.520Z,99.90
2022-08-17T13:37:33.287Z,99.90
2022-08-17T13:40:31.023Z,99.90
2022-08-17T13:42:59.537Z,99.90
2022-08-17T13:45:53.137Z,99.90
2022-08-17T13:48:26.813Z,99.90
2022-08-17T13:51:08.274Z,99.90
2022-08-17T13:53:56.845Z,99.90
2022-08-17T13:56:38.056Z,99.90
2022-08-17T13:59:11.454Z,99.90
2022-08-17T14:01:43.068Z,99.90
2022-08-17T14:04:14.719Z,99.90
2022-08-17T14:06:52.929Z,99.90
2022-08-17T14:09:25.806Z,99.90
2022-08-17T14:12:00.044Z,99.90
2022-08-17T14:14:29.266Z,99.90
2022-08-17T14:16:58.047Z,99.90
2022-08-17T14:19:26.919Z,99.90
2022-08-17T14:21:56.566Z,99.90
2022-08-17T14:24:29.348Z,99.90
2022-08-17T14:26:59.170Z,99.90
2022-08-17T14:29:29.832Z,99.90
2022-08-17T14:31:59.200Z,99.90
2022-08-17T14:34:27.398Z,99.90
2022-08-17T14:36:56.908Z,99.90
2022-08-17T14:39:26.408Z,99.90
2022-08-17T14:41:56.066Z,99.90
2022-08-17T14:44:24.165Z,99.90
2022-08-17T14:46:54.242Z,99.90
2022-08-17T14:49:22.339Z,99.90
2022-08-17T14:51:50.658Z,99.90
2022-08-17T14:54:28.866Z,99.90
2022-08-17T14:57:25.222Z,99.90
2022-08-17T14:59:56.632Z,99.90
2022-08-17T15:02:30.003Z,99.90
2022-08-17T15:05:03.616Z,99.90
2022-08-17T15:07:32.027Z,99.90
2022-08-17T15:10:02.257Z,99.90
2022-08-17T15:12:34.302Z,99.90
2022-08-17T15:15:04.946Z,99.90
2022-08-17T15:17:44.801Z,99.90
2022-08-17T15:20:17.194Z,99.90
2022-08-17T15:22:46.863Z,99.90
2022-08-17T15:25:17.673Z,99.90
2022-08-17T15:27:47.477Z,99.90
2022-08-17T15:30:16.523Z,99.90
2022-08-17T15:32:50.605Z,99.90
2022-08-17T15:35:28.014Z,99.90
2022-08-17T15:37:58.716Z,99.90
2022-08-17T15:40:36.666Z,99.90
2022-08-17T15:43:11.976Z,99.90
2022-08-17T15:45:40.905Z,99.90
2022-08-17T15:48:09.487Z,99.90
2022-08-17T15:50:38.194Z,99.90
2022-08-17T15:53:06.496Z,99.90
2022-08-17T15:55:36.652Z,99.90
2022-08-17T15:58:05.176Z,99.90
2022-08-17T16:00:42.020Z,99.90
2022-08-17T16:04:01.580Z,99.90
2022-08-17T16:06:13.719Z,99.90
2022-08-17T16:08:44.497Z,99.90
2022-08-17T16:11:14.066Z,99.90
2022-08-17T16:13:51.306Z,99.90
2022-08-17T16:16:24.828Z,99.90
2022-08-17T16:18:58.493Z,99.90
2022-08-17T16:21:29.532Z,99.90
2022-08-17T16:24:01.250Z,99.90
2022-08-17T16:26:32.551Z,99.90
2022-08-17T16:29:02.975Z,99.90
2022-08-17T16:31:32.902Z,99.90
2022-08-17T16:34:16.813Z,99.90
2022-08-17T16:36:54.750Z,99.90
2022-08-17T16:39:26.350Z,99.90
2022-08-17T16:41:54.784Z,99.90
2022-08-17T16:44:23.487Z,99.90
2022-08-17T16:46:53.422Z,99.90
2022-08-17T16:49:27.589Z,99.90
2022-08-17T16:52:06.879Z,99.90
2022-08-17T16:54:35.902Z,99.90
2022-08-17T16:57:05.880Z,99.90
2022-08-17T16:59:40.789Z,99.90
2022-08-17T17:02:14.998Z,99.90
2022-08-17T17:04:52.107Z,99.90
2022-08-17T17:07:35.478Z,99.90
2022-08-17T17:10:09.398Z,99.90
2022-08-17T17:13:02.427Z,99.90
2022-08-17T17:15:35.571Z,99.90
2022-08-17T17:18:11.617Z,99.90
2022-08-17T17:20:48.700Z,99.90
2022-08-17T17:23:46.377Z,99.90
2022-08-17T17:26:28.500Z,99.90
2022-08-17T17:29:18.310Z,99.90
2022-08-17T17:31:56.125Z,99.90
2022-08-17T17:34:36.044Z,99.90
2022-08-17T17:37:08.795Z,99.90
2022-08-17T17:39:43.892Z,99.90
2022-08-17T17:42:20.158Z,99.90
2022-08-17T17:44:53.724Z,99.90
2022-08-17T17:47:22.834Z,99.90
2022-08-17T17:49:52.417Z,99.90
2022-08-17T17:52:27.504Z,99.90
2022-08-17T17:55:04.684Z,99.90
2022-08-17T17:57:48.044Z,99.90
2022-08-17T18:00:19.636Z,99.90
2022-08-17T18:02:59.952Z,99.90
2022-08-17T18:05:50.499Z,99.90
2022-08-17T18:08:37.254Z,99.90
2022-08-17T18:11:24.498Z,99.90
2022-08-17T18:14:14.613Z,99.90
2022-08-17T18:16:43.802Z,99.90
2022-08-17T18:19:14.686Z,99.90
2022-08-17T18:21:49.333Z,99.90
2022-08-17T18:24:30.519Z,99.90
2022-08-17T18:27:00.144Z,99.90
2022-08-17T18:29:45.232Z,99.90
2022-08-17T18:32:31.292Z,99.90
2022-08-17T18:35:02.682Z,99.90
2022-08-17T18:37:39.474Z,99.90
2022-08-17T18:40:35.678Z,99.90
2022-08-17T18:43:24.396Z,99.90
2022-08-17T18:45:54.973Z,99.90
2022-08-17T18:48:29.956Z,99.90
2022-08-17T18:51:07.482Z,99.90
2022-08-17T18:56:32.359Z,99.90
2022-08-17T18:59:10.466Z,99.90
2022-08-17T19:01:52.744Z,99.90
2022-08-17T19:04:34.965Z,99.90
2022-08-17T19:07:23.148Z,99.90
2022-08-17T19:09:59.223Z,99.90
2022-08-17T19:12:34.391Z,99.90
2022-08-17T19:15:03.470Z,99.90
2022-08-17T19:17:42.458Z,99.90
2022-08-17T19:20:18.523Z,99.90
2022-08-17T19:23:01.495Z,99.90
2022-08-17T19:25:33.425Z,99.90
2022-08-17T19:28:21.715Z,99.90
2022-08-17T19:30:57.606Z,99.90
2022-08-17T19:33:26.411Z,99.90
2022-08-17T19:36:06.404Z,99.90
2022-08-17T19:38:45.731Z,99.90
2022-08-17T19:41:24.390Z,99.90
2022-08-17T19:44:18.091Z,99.90
2022-08-17T19:46:56.245Z,99.90
2022-08-17T19:49:40.925Z,99.90
2022-08-17T19:52:24.094Z,99.90
2022-08-17T19:54:59.827Z,99.90
2022-08-17T19:57:40.736Z,99.90
2022-08-17T20:00:13.432Z,99.90
2022-08-17T20:02:51.113Z,99.90
2022-08-17T20:05:23.577Z,99.90
2022-08-17T20:07:56.615Z,99.90
2022-08-17T20:10:38.244Z,99.90
2022-08-17T20:13:11.023Z,99.90
2022-08-17T20:15:44.096Z,99.90
2022-08-17T20:18:21.115Z,99.90
2022-08-17T20:20:57.402Z,99.90
2022-08-17T20:23:45.759Z,99.90
2022-08-17T20:26:22.340Z,99.90
2022-08-17T20:29:10.884Z,99.90
2022-08-17T20:31:48.591Z,99.90
2022-08-17T20:34:39.618Z,99.90
2022-08-17T20:37:11.057Z,99.90
2022-08-17T20:39:43.549Z,99.90
2022-08-17T20:42:30.425Z,99.90
2022-08-17T20:45:02.400Z,99.90
2022-08-17T20:47:35.299Z,99.90
2022-08-17T20:50:06.931Z,99.90
2022-08-17T20:52:59.365Z,99.90
2022-08-17T20:55:55.742Z,99.90
2022-08-17T20:58:46.625Z,99.90
2022-08-17T21:01:24.123Z,99.90
2022-08-17T21:03:56.739Z,99.90
2022-08-17T21:06:26.398Z,99.90
2022-08-17T21:08:58.988Z,99.90
2022-08-17T21:11:56.870Z,99.90
2022-08-17T21:14:53.804Z,99.90
2022-08-17T21:17:43.568Z,99.90
2022-08-17T21:20:32.213Z,99.90
2022-08-17T21:23:21.637Z,99.90
2022-08-17T21:26:13.557Z,99.90
2022-08-17T21:29:00.728Z,99.90
2022-08-17T21:31:35.363Z,99.90
2022-08-17T21:34:28.735Z,1.00
2022-08-17T21:37:29.884Z,1.00
2022-08-17T21:40:02.829Z,1.00
2022-08-17T21:42:35.785Z,1.00
2022-08-17T21:45:12.209Z,1.00
2022-08-17T21:47:49.797Z,1.00
2022-08-17T21:50:24.606Z,1.00
2022-08-17T21:52:59.632Z,1.00
2022-08-17T21:55:32.865Z,1.00
2022-08-17T21:58:14.569Z,1.00
2022-08-17T22:00:46.172Z,1.00
2022-08-17T22:03:26.114Z,1.00
2022-08-17T22:05:55.143Z,1.00
2022-08-17T22:08:34.076Z,1.00
2022-08-17T22:11:10.140Z,1.00
2022-08-17T22:13:44.091Z,1.00
2022-08-17T22:16:29.419Z,1.00
2022-08-17T22:19:01.986Z,1.00
2022-08-17T22:21:32.342Z,1.00
2022-08-17T22:24:18.016Z,1.00
2022-08-17T22:27:10.304Z,1.00
2022-08-17T22:29:57.391Z,1.00
2022-08-17T22:32:39.274Z,8.50
2022-08-17T22:35:41.853Z,24.40
2022-08-17T22:38:34.328Z,31.80
2022-08-17T22:41:32.791Z,46.10
2022-08-17T22:44:09.140Z,50.30
2022-08-17T22:46:59.157Z,61.30
2022-08-17T22:49:53.328Z,87.00
2022-08-17T22:52:33.617Z,97.30
2022-08-17T22:55:30.111Z,99.90
2022-08-17T22:58:29.408Z,99.90
2022-08-17T23:01:23.074Z,99.90
2022-08-17T23:03:57.151Z,99.90
2022-08-17T23:06:25.847Z,99.90
2022-08-17T23:08:56.321Z,99.90
2022-08-17T23:11:36.970Z,99.90
2022-08-17T23:14:19.131Z,99.90
2022-08-17T23:16:47.770Z,99.90
2022-08-17T23:19:22.033Z,99.90
2022-08-17T23:21:54.389Z,99.90
2022-08-17T23:24:28.605Z,99.90
2022-08-17T23:26:59.926Z,99.90
2022-08-17T23:29:39.243Z,99.90
2022-08-17T23:32:08.046Z,99.90
2022-08-17T23:34:38.674Z,99.90
2022-08-17T23:37:10.549Z,99.90
2022-08-17T23:39:39.576Z,99.90
2022-08-17T23:42:12.087Z,99.90
2022-08-17T23:44:43.990Z,99.90
2022-08-17T23:47:12.339Z,99.90
2022-08-17T23:49:41.366Z,99.90
2022-08-17T23:52:12.670Z,99.90
2022-08-17T23:54:48.004Z,99.90
2022-08-17T23:57:20.421Z,99.90
